sensor_id;sensor_type;location;lat;lon;timestamp;temperature;humidity
9193;DHT22;4631;49.296;10.560;2023-02-28T00:02:24;-2.00;99.90
9193;DHT22;4631;49.296;10.560;2023-02-28T00:04:51;-2.10;99.90
9193;DHT22;4631;49.296;10.560;2023-02-28T00:07:27;-2.10;99.90
9193;DHT22;4631;49.296;10.560;2023-02-28T00:09:54;-2.10;99.90
9193;DHT22;4631;49.296;10.560;2023-02-28T00:12:21;-2.10;99.90
9193;DHT22;4631;49.296;10.560;2023-02-28T00:14:48;-2.10;99.90
9193;DHT22;4631;49.296;10.560;2023-02-28T00:17:14;-2.00;99.90
9193;DHT22;4631;49.296;10.560;2023-02-28T00:19:43;-2.00;99.90
9193;DHT22;4631;49.296;10.560;2023-02-28T00:22:09;-2.10;99.90
9193;DHT22;4631;49.296;10.560;2023-02-28T00:24:37;-2.10;99.90
9193;DHT22;4631;49.296;10.560;2023-02-28T00:27:04;-2.10;99.90
9193;DHT22;4631;49.296;10.560;2023-02-28T00:29:31;-2.20;99.90
9193;DHT22;4631;49.296;10.560;2023-02-28T00:31:57;-2.10;99.90
9193;DHT22;4631;49.296;10.560;2023-02-28T00:34:24;-2.10;99.90
9193;DHT22;4631;49.296;10.560;2023-02-28T00:36:51;-2.20;99.90
9193;DHT22;4631;49.296;10.560;2023-02-28T00:39:17;-2.20;99.90
9193;DHT22;4631;49.296;10.560;2023-02-28T00:41:45;-2.20;99.90
9193;DHT22;4631;49.296;10.560;2023-02-28T00:44:12;-2.20;99.90
9193;DHT22;4631;49.296;10.560;2023-02-28T00:46:38;-2.20;99.90
9193;DHT22;4631;49.296;10.560;2023-02-28T00:49:05;-2.20;99.90
9193;DHT22;4631;49.296;10.560;2023-02-28T00:51:32;-2.20;99.90
9193;DHT22;4631;49.296;10.560;2023-02-28T00:53:58;-2.20;99.90
9193;DHT22;4631;49.296;10.560;2023-02-28T00:56:25;-2.30;99.90
9193;DHT22;4631;49.296;10.560;2023-02-28T00:58:55;-2.20;99.90
9193;DHT22;4631;49.296;10.560;2023-02-28T01:01:22;-2.20;99.90
9193;DHT22;4631;49.296;10.560;2023-02-28T01:03:48;-2.30;99.90
9193;DHT22;4631;49.296;10.560;2023-02-28T01:06:15;-2.30;99.90
9193;DHT22;4631;49.296;10.560;2023-02-28T01:08:41;-2.30;99.90
9193;DHT22;4631;49.296;10.560;2023-02-28T01:11:09;-2.20;99.90
9193;DHT22;4631;49.296;10.560;2023-02-28T01:13:35;-2.30;99.90
9193;DHT22;4631;49.296;10.560;2023-02-28T01:16:04;-2.30;99.90
9193;DHT22;4631;49.296;10.560;2023-02-28T01:18:30;-2.20;99.90
9193;DHT22;4631;49.296;10.560;2023-02-28T01:20:57;-2.20;99.90
9193;DHT22;4631;49.296;10.560;2023-02-28T01:23:24;-2.20;99.90
9193;DHT22;4631;49.296;10.560;2023-02-28T01:25:50;-2.30;99.90
9193;DHT22;4631;49.296;10.560;2023-02-28T01:28:17;-2.30;99.90
9193;DHT22;4631;49.296;10.560;2023-02-28T01:30:47;-2.30;99.90
9193;DHT22;4631;49.296;10.560;2023-02-28T01:33:15;-2.30;99.90
9193;DHT22;4631;49.296;10.560;2023-02-28T01:35:41;-2.40;99.90
9193;DHT22;4631;49.296;10.560;2023-02-28T01:38:08;-2.30;99.90
9193;DHT22;4631;49.296;10.560;2023-02-28T01:40:34;-2.30;99.90
9193;DHT22;4631;49.296;10.560;2023-02-28T01:43:01;-2.30;99.90
9193;DHT22;4631;49.296;10.560;2023-02-28T01:45:28;-2.30;99.90
9193;DHT22;4631;49.296;10.560;2023-02-28T01:47:55;-2.30;99.90
9193;DHT22;4631;49.296;10.560;2023-02-28T01:50:25;-2.30;99.90
9193;DHT22;4631;49.296;10.560;2023-02-28T01:52:53;-2.30;99.90
9193;DHT22;4631;49.296;10.560;2023-02-28T01:55:21;-2.40;99.90
9193;DHT22;4631;49.296;10.560;2023-02-28T01:57:56;-2.40;99.90
9193;DHT22;4631;49.296;10.560;2023-02-28T02:00:24;-2.40;99.90
9193;DHT22;4631;49.296;10.560;2023-02-28T02:02:53;-2.50;99.90
9193;DHT22;4631;49.296;10.560;2023-02-28T02:05:21;-2.40;99.90
9193;DHT22;4631;49.296;10.560;2023-02-28T02:07:50;-2.40;99.90
9193;DHT22;4631;49.296;10.560;2023-02-28T02:10:19;-2.40;99.90
9193;DHT22;4631;49.296;10.560;2023-02-28T02:12:51;-2.40;99.90
9193;DHT22;4631;49.296;10.560;2023-02-28T02:15:23;-2.40;99.90
9193;DHT22;4631;49.296;10.560;2023-02-28T02:17:51;-2.40;99.90
9193;DHT22;4631;49.296;10.560;2023-02-28T02:20:29;-2.40;99.90
9193;DHT22;4631;49.296;10.560;2023-02-28T02:25:47;-2.50;99.90
9193;DHT22;4631;49.296;10.560;2023-02-28T02:28:22;-2.50;99.90
9193;DHT22;4631;49.296;10.560;2023-02-28T02:36:26;-2.50;99.90
9193;DHT22;4631;49.296;10.560;2023-02-28T02:38:55;-2.60;99.90
9193;DHT22;4631;49.296;10.560;2023-02-28T02:41:24;-2.60;99.90
9193;DHT22;4631;49.296;10.560;2023-02-28T02:43:52;-2.50;99.90
9193;DHT22;4631;49.296;10.560;2023-02-28T02:46:23;-2.50;99.90
9193;DHT22;4631;49.296;10.560;2023-02-28T02:48:50;-2.50;99.90
9193;DHT22;4631;49.296;10.560;2023-02-28T02:51:18;-2.60;99.90
9193;DHT22;4631;49.296;10.560;2023-02-28T02:53:48;-2.50;99.90
9193;DHT22;4631;49.296;10.560;2023-02-28T02:56:16;-2.50;99.90
9193;DHT22;4631;49.296;10.560;2023-02-28T02:58:50;-2.60;99.90
9193;DHT22;4631;49.296;10.560;2023-02-28T03:01:18;-2.60;99.90
9193;DHT22;4631;49.296;10.560;2023-02-28T03:03:54;-2.60;99.90
9193;DHT22;4631;49.296;10.560;2023-02-28T03:06:21;-2.70;99.90
9193;DHT22;4631;49.296;10.560;2023-02-28T03:08:49;-2.60;99.90
9193;DHT22;4631;49.296;10.560;2023-02-28T03:11:16;-2.60;99.90
9193;DHT22;4631;49.296;10.560;2023-02-28T03:13:47;-2.60;99.90
9193;DHT22;4631;49.296;10.560;2023-02-28T03:16:22;-2.70;99.90
9193;DHT22;4631;49.296;10.560;2023-02-28T03:18:53;-2.60;99.90
9193;DHT22;4631;49.296;10.560;2023-02-28T03:21:22;-2.60;99.90
9193;DHT22;4631;49.296;10.560;2023-02-28T03:23:53;-2.70;99.90
9193;DHT22;4631;49.296;10.560;2023-02-28T03:26:23;-2.70;99.90
9193;DHT22;4631;49.296;10.560;2023-02-28T03:28:51;-2.70;99.90
9193;DHT22;4631;49.296;10.560;2023-02-28T03:31:20;-2.60;99.90
9193;DHT22;4631;49.296;10.560;2023-02-28T03:33:49;-2.70;99.90
9193;DHT22;4631;49.296;10.560;2023-02-28T03:36:21;-2.70;99.90
9193;DHT22;4631;49.296;10.560;2023-02-28T03:38:49;-2.70;99.90
9193;DHT22;4631;49.296;10.560;2023-02-28T03:41:20;-2.70;99.90
9193;DHT22;4631;49.296;10.560;2023-02-28T03:43:49;-2.70;99.90
9193;DHT22;4631;49.296;10.560;2023-02-28T03:46:19;-2.80;99.90
9193;DHT22;4631;49.296;10.560;2023-02-28T03:48:48;-2.80;99.90
9193;DHT22;4631;49.296;10.560;2023-02-28T03:51:17;-2.80;99.90
9193;DHT22;4631;49.296;10.560;2023-02-28T03:53:45;-2.80;99.90
9193;DHT22;4631;49.296;10.560;2023-02-28T03:56:15;-2.80;99.90
9193;DHT22;4631;49.296;10.560;2023-02-28T03:58:49;-2.70;99.90
9193;DHT22;4631;49.296;10.560;2023-02-28T04:01:16;-2.70;99.90
9193;DHT22;4631;49.296;10.560;2023-02-28T04:03:45;-2.80;99.90
9193;DHT22;4631;49.296;10.560;2023-02-28T04:06:14;-2.80;99.90
9193;DHT22;4631;49.296;10.560;2023-02-28T04:08:41;-2.70;99.90
9193;DHT22;4631;49.296;10.560;2023-02-28T04:11:11;-2.80;99.90
9193;DHT22;4631;49.296;10.560;2023-02-28T04:13:40;-2.80;99.90
9193;DHT22;4631;49.296;10.560;2023-02-28T04:16:08;-2.80;99.90
9193;DHT22;4631;49.296;10.560;2023-02-28T04:18:37;-2.80;99.90
9193;DHT22;4631;49.296;10.560;2023-02-28T04:21:04;-2.80;99.90
9193;DHT22;4631;49.296;10.560;2023-02-28T04:23:31;-2.80;99.90
9193;DHT22;4631;49.296;10.560;2023-02-28T04:25:57;-2.80;99.90
9193;DHT22;4631;49.296;10.560;2023-02-28T04:28:24;-2.80;99.90
9193;DHT22;4631;49.296;10.560;2023-02-28T04:30:53;-2.80;99.90
9193;DHT22;4631;49.296;10.560;2023-02-28T04:33:21;-2.80;99.90
9193;DHT22;4631;49.296;10.560;2023-02-28T04:35:48;-2.80;99.90
9193;DHT22;4631;49.296;10.560;2023-02-28T04:38:15;-2.90;99.90
9193;DHT22;4631;49.296;10.560;2023-02-28T04:40:41;-2.90;99.90
9193;DHT22;4631;49.296;10.560;2023-02-28T04:43:08;-2.80;99.90
9193;DHT22;4631;49.296;10.560;2023-02-28T04:45:34;-2.80;99.90
9193;DHT22;4631;49.296;10.560;2023-02-28T04:48:01;-2.80;99.90
9193;DHT22;4631;49.296;10.560;2023-02-28T04:50:29;-2.90;99.90
9193;DHT22;4631;49.296;10.560;2023-02-28T04:52:56;-2.90;99.90
9193;DHT22;4631;49.296;10.560;2023-02-28T04:55:22;-2.90;99.90
9193;DHT22;4631;49.296;10.560;2023-02-28T04:57:50;-3.00;99.90
9193;DHT22;4631;49.296;10.560;2023-02-28T05:00:17;-2.90;99.90
9193;DHT22;4631;49.296;10.560;2023-02-28T05:02:44;-3.00;99.90
9193;DHT22;4631;49.296;10.560;2023-02-28T05:05:10;-3.00;99.90
9193;DHT22;4631;49.296;10.560;2023-02-28T05:07:38;-3.00;99.90
9193;DHT22;4631;49.296;10.560;2023-02-28T05:10:05;-3.00;99.90
9193;DHT22;4631;49.296;10.560;2023-02-28T05:12:32;-3.00;99.90
9193;DHT22;4631;49.296;10.560;2023-02-28T05:14:58;-3.00;99.90
9193;DHT22;4631;49.296;10.560;2023-02-28T05:17:26;-3.00;99.90
9193;DHT22;4631;49.296;10.560;2023-02-28T05:19:53;-3.00;99.90
9193;DHT22;4631;49.296;10.560;2023-02-28T05:22:19;-3.00;99.90
9193;DHT22;4631;49.296;10.560;2023-02-28T05:24:47;-3.00;99.90
9193;DHT22;4631;49.296;10.560;2023-02-28T05:27:14;-3.00;99.90
9193;DHT22;4631;49.296;10.560;2023-02-28T05:29:40;-3.00;99.90
9193;DHT22;4631;49.296;10.560;2023-02-28T05:32:09;-3.00;99.90
9193;DHT22;4631;49.296;10.560;2023-02-28T05:34:36;-3.00;99.90
9193;DHT22;4631;49.296;10.560;2023-02-28T05:37:02;-3.00;99.90
9193;DHT22;4631;49.296;10.560;2023-02-28T05:39:29;-2.90;99.90
9193;DHT22;4631;49.296;10.560;2023-02-28T05:41:57;-2.90;99.90
9193;DHT22;4631;49.296;10.560;2023-02-28T05:44:24;-2.90;99.90
9193;DHT22;4631;49.296;10.560;2023-02-28T05:46:50;-2.90;99.90
9193;DHT22;4631;49.296;10.560;2023-02-28T05:49:17;-2.90;99.90
9193;DHT22;4631;49.296;10.560;2023-02-28T05:51:43;-2.90;99.90
9193;DHT22;4631;49.296;10.560;2023-02-28T05:54:10;-2.90;99.90
9193;DHT22;4631;49.296;10.560;2023-02-28T05:56:37;-2.90;99.90
9193;DHT22;4631;49.296;10.560;2023-02-28T05:59:07;-2.80;99.90
9193;DHT22;4631;49.296;10.560;2023-02-28T06:01:35;-2.80;99.90
9193;DHT22;4631;49.296;10.560;2023-02-28T06:04:02;-2.80;99.90
9193;DHT22;4631;49.296;10.560;2023-02-28T06:06:29;-2.80;99.90
9193;DHT22;4631;49.296;10.560;2023-02-28T06:08:55;-2.70;99.90
9193;DHT22;4631;49.296;10.560;2023-02-28T06:11:22;-2.70;99.90
9193;DHT22;4631;49.296;10.560;2023-02-28T06:13:53;-2.80;99.90
9193;DHT22;4631;49.296;10.560;2023-02-28T06:16:21;-2.80;99.90
9193;DHT22;4631;49.296;10.560;2023-02-28T06:18:48;-2.80;99.90
9193;DHT22;4631;49.296;10.560;2023-02-28T06:21:14;-2.80;99.90
9193;DHT22;4631;49.296;10.560;2023-02-28T06:23:41;-2.80;99.90
9193;DHT22;4631;49.296;10.560;2023-02-28T06:26:08;-2.80;99.90
9193;DHT22;4631;49.296;10.560;2023-02-28T06:28:34;-2.80;99.90
9193;DHT22;4631;49.296;10.560;2023-02-28T06:31:05;-2.80;99.90
9193;DHT22;4631;49.296;10.560;2023-02-28T06:33:33;-2.80;99.90
9193;DHT22;4631;49.296;10.560;2023-02-28T06:36:00;-2.80;99.90
9193;DHT22;4631;49.296;10.560;2023-02-28T06:38:26;-2.80;99.90
9193;DHT22;4631;49.296;10.560;2023-02-28T06:40:53;-2.70;99.90
9193;DHT22;4631;49.296;10.560;2023-02-28T06:43:20;-2.70;99.90
9193;DHT22;4631;49.296;10.560;2023-02-28T06:45:46;-2.70;99.90
9193;DHT22;4631;49.296;10.560;2023-02-28T06:48:13;-2.70;99.90
9193;DHT22;4631;49.296;10.560;2023-02-28T06:50:41;-2.60;99.90
9193;DHT22;4631;49.296;10.560;2023-02-28T06:53:08;-2.60;99.90
9193;DHT22;4631;49.296;10.560;2023-02-28T06:55:34;-2.60;99.90
9193;DHT22;4631;49.296;10.560;2023-02-28T06:58:04;-2.50;99.90
9193;DHT22;4631;49.296;10.560;2023-02-28T07:00:40;-2.50;99.90
9193;DHT22;4631;49.296;10.560;2023-02-28T07:03:06;-2.50;99.90
9193;DHT22;4631;49.296;10.560;2023-02-28T07:05:34;-2.50;99.90
9193;DHT22;4631;49.296;10.560;2023-02-28T07:08:02;-2.50;99.90
9193;DHT22;4631;49.296;10.560;2023-02-28T07:10:28;-2.50;99.90
9193;DHT22;4631;49.296;10.560;2023-02-28T07:12:55;-2.50;99.90
9193;DHT22;4631;49.296;10.560;2023-02-28T07:15:22;-2.60;99.90
9193;DHT22;4631;49.296;10.560;2023-02-28T07:17:48;-2.60;99.90
9193;DHT22;4631;49.296;10.560;2023-02-28T07:20:15;-2.50;99.90
9193;DHT22;4631;49.296;10.560;2023-02-28T07:22:42;-2.50;99.90
9193;DHT22;4631;49.296;10.560;2023-02-28T07:25:10;-2.50;99.90
9193;DHT22;4631;49.296;10.560;2023-02-28T07:27:37;-2.40;99.90
9193;DHT22;4631;49.296;10.560;2023-02-28T07:30:04;-2.40;99.90
9193;DHT22;4631;49.296;10.560;2023-02-28T07:32:32;-2.40;99.90
9193;DHT22;4631;49.296;10.560;2023-02-28T07:35:03;-2.40;99.90
9193;DHT22;4631;49.296;10.560;2023-02-28T07:37:29;-2.30;99.90
9193;DHT22;4631;49.296;10.560;2023-02-28T07:39:56;-2.30;99.90
9193;DHT22;4631;49.296;10.560;2023-02-28T07:42:24;-2.30;99.90
9193;DHT22;4631;49.296;10.560;2023-02-28T07:44:51;-2.30;99.90
9193;DHT22;4631;49.296;10.560;2023-02-28T07:47:19;-2.20;99.90
9193;DHT22;4631;49.296;10.560;2023-02-28T07:49:45;-2.20;99.90
9193;DHT22;4631;49.296;10.560;2023-02-28T07:52:12;-2.20;99.90
9193;DHT22;4631;49.296;10.560;2023-02-28T07:54:38;-2.10;99.90
9193;DHT22;4631;49.296;10.560;2023-02-28T07:57:05;-2.10;99.90
9193;DHT22;4631;49.296;10.560;2023-02-28T08:02:03;-2.00;99.90
9193;DHT22;4631;49.296;10.560;2023-02-28T08:04:31;-2.00;99.90
9193;DHT22;4631;49.296;10.560;2023-02-28T08:06:58;-2.00;99.90
9193;DHT22;4631;49.296;10.560;2023-02-28T08:09:24;-1.90;99.90
9193;DHT22;4631;49.296;10.560;2023-02-28T08:11:51;-1.90;99.90
9193;DHT22;4631;49.296;10.560;2023-02-28T08:14:17;-1.80;99.90
9193;DHT22;4631;49.296;10.560;2023-02-28T08:16:44;-1.70;99.90
9193;DHT22;4631;49.296;10.560;2023-02-28T08:19:12;-1.70;99.90
9193;DHT22;4631;49.296;10.560;2023-02-28T08:21:39;-1.60;99.90
9193;DHT22;4631;49.296;10.560;2023-02-28T08:24:06;-1.50;99.90
9193;DHT22;4631;49.296;10.560;2023-02-28T08:26:33;-1.50;99.90
9193;DHT22;4631;49.296;10.560;2023-02-28T08:28:59;-1.50;99.90
9193;DHT22;4631;49.296;10.560;2023-02-28T08:31:26;-1.40;99.90
9193;DHT22;4631;49.296;10.560;2023-02-28T08:33:52;-1.30;99.90
9193;DHT22;4631;49.296;10.560;2023-02-28T08:36:23;-1.20;99.90
9193;DHT22;4631;49.296;10.560;2023-02-28T08:38:50;-1.10;99.90
9193;DHT22;4631;49.296;10.560;2023-02-28T08:41:16;-1.10;99.90
9193;DHT22;4631;49.296;10.560;2023-02-28T08:43:43;-1.00;99.90
9193;DHT22;4631;49.296;10.560;2023-02-28T08:46:10;-0.90;99.90
9193;DHT22;4631;49.296;10.560;2023-02-28T08:48:37;-0.90;99.90
9193;DHT22;4631;49.296;10.560;2023-02-28T08:51:11;-0.90;99.90
9193;DHT22;4631;49.296;10.560;2023-02-28T08:53:40;-0.90;99.90
9193;DHT22;4631;49.296;10.560;2023-02-28T08:56:07;-0.80;99.90
9193;DHT22;4631;49.296;10.560;2023-02-28T08:58:34;-0.80;99.90
9193;DHT22;4631;49.296;10.560;2023-02-28T09:01:06;-0.70;99.90
9193;DHT22;4631;49.296;10.560;2023-02-28T09:03:33;-0.60;99.90
9193;DHT22;4631;49.296;10.560;2023-02-28T09:06:00;-0.60;99.90
9193;DHT22;4631;49.296;10.560;2023-02-28T09:08:28;-0.50;99.90
9193;DHT22;4631;49.296;10.560;2023-02-28T09:10:56;-0.50;99.90
9193;DHT22;4631;49.296;10.560;2023-02-28T09:13:23;-0.40;99.90
9193;DHT22;4631;49.296;10.560;2023-02-28T09:15:50;-0.30;99.90
9193;DHT22;4631;49.296;10.560;2023-02-28T09:18:17;-0.30;99.90
9193;DHT22;4631;49.296;10.560;2023-02-28T09:20:43;-0.30;99.90
9193;DHT22;4631;49.296;10.560;2023-02-28T09:23:11;-0.20;99.90
9193;DHT22;4631;49.296;10.560;2023-02-28T09:25:38;-0.10;99.90
9193;DHT22;4631;49.296;10.560;2023-02-28T09:28:06;0.00;99.90
9193;DHT22;4631;49.296;10.560;2023-02-28T09:30:32;0.00;99.90
9193;DHT22;4631;49.296;10.560;2023-02-28T09:32:59;0.00;99.90
9193;DHT22;4631;49.296;10.560;2023-02-28T09:35:26;0.00;99.90
9193;DHT22;4631;49.296;10.560;2023-02-28T09:37:53;0.10;99.90
9193;DHT22;4631;49.296;10.560;2023-02-28T09:40:20;0.20;99.90
9193;DHT22;4631;49.296;10.560;2023-02-28T09:42:47;0.20;99.90
9193;DHT22;4631;49.296;10.560;2023-02-28T09:45:19;0.30;99.90
9193;DHT22;4631;49.296;10.560;2023-02-28T09:47:48;0.40;99.90
9193;DHT22;4631;49.296;10.560;2023-02-28T09:50:17;0.50;99.90
9193;DHT22;4631;49.296;10.560;2023-02-28T09:52:46;0.60;99.90
9193;DHT22;4631;49.296;10.560;2023-02-28T09:55:18;0.50;99.90
9193;DHT22;4631;49.296;10.560;2023-02-28T09:57:45;0.60;99.90
9193;DHT22;4631;49.296;10.560;2023-02-28T10:00:13;0.60;99.90
9193;DHT22;4631;49.296;10.560;2023-02-28T10:02:54;0.70;99.90
9193;DHT22;4631;49.296;10.560;2023-02-28T10:05:26;0.70;99.90
9193;DHT22;4631;49.296;10.560;2023-02-28T10:07:56;0.70;99.90
9193;DHT22;4631;49.296;10.560;2023-02-28T10:10:27;0.80;99.90
9193;DHT22;4631;49.296;10.560;2023-02-28T10:12:56;0.80;99.90
9193;DHT22;4631;49.296;10.560;2023-02-28T10:15:24;0.90;99.90
9193;DHT22;4631;49.296;10.560;2023-02-28T10:17:55;1.00;99.90
9193;DHT22;4631;49.296;10.560;2023-02-28T10:20:23;1.00;99.90
9193;DHT22;4631;49.296;10.560;2023-02-28T10:22:57;1.10;99.90
9193;DHT22;4631;49.296;10.560;2023-02-28T10:25:25;1.10;99.90
9193;DHT22;4631;49.296;10.560;2023-02-28T10:27:52;1.20;99.90
9193;DHT22;4631;49.296;10.560;2023-02-28T10:30:20;1.40;99.90
9193;DHT22;4631;49.296;10.560;2023-02-28T10:32:47;1.60;99.90
9193;DHT22;4631;49.296;10.560;2023-02-28T10:35:17;1.70;99.90
9193;DHT22;4631;49.296;10.560;2023-02-28T10:37:44;1.80;99.90
9193;DHT22;4631;49.296;10.560;2023-02-28T10:40:24;1.80;99.90
9193;DHT22;4631;49.296;10.560;2023-02-28T10:42:54;1.70;99.90
9193;DHT22;4631;49.296;10.560;2023-02-28T10:45:21;1.60;99.90
9193;DHT22;4631;49.296;10.560;2023-02-28T10:47:51;1.60;99.90
9193;DHT22;4631;49.296;10.560;2023-02-28T10:50:31;1.50;99.90
9193;DHT22;4631;49.296;10.560;2023-02-28T10:53:05;1.50;99.90
9193;DHT22;4631;49.296;10.560;2023-02-28T10:55:33;1.60;99.90
9193;DHT22;4631;49.296;10.560;2023-02-28T10:58:02;1.60;99.90
9193;DHT22;4631;49.296;10.560;2023-02-28T11:00:32;1.70;99.90
9193;DHT22;4631;49.296;10.560;2023-02-28T11:02:58;1.80;99.90
9193;DHT22;4631;49.296;10.560;2023-02-28T11:05:27;1.90;99.90
9193;DHT22;4631;49.296;10.560;2023-02-28T11:07:56;2.10;99.90
9193;DHT22;4631;49.296;10.560;2023-02-28T11:10:25;2.10;99.90
9193;DHT22;4631;49.296;10.560;2023-02-28T11:12:54;2.10;99.90
9193;DHT22;4631;49.296;10.560;2023-02-28T11:15:22;2.10;99.90
9193;DHT22;4631;49.296;10.560;2023-02-28T11:17:53;2.20;99.90
9193;DHT22;4631;49.296;10.560;2023-02-28T11:20:20;2.20;99.90
9193;DHT22;4631;49.296;10.560;2023-02-28T11:22:48;2.20;99.90
9193;DHT22;4631;49.296;10.560;2023-02-28T11:25:19;2.20;99.90
9193;DHT22;4631;49.296;10.560;2023-02-28T11:27:48;2.40;99.90
9193;DHT22;4631;49.296;10.560;2023-02-28T11:30:34;2.50;99.90
9193;DHT22;4631;49.296;10.560;2023-02-28T11:33:01;2.70;
9193;DHT22;4631;49.296;10.560;2023-02-28T11:35:42;2.80;99.90
9193;DHT22;4631;49.296;10.560;2023-02-28T11:38:09;2.90;99.90
9193;DHT22;4631;49.296;10.560;2023-02-28T11:40:39;3.10;99.90
9193;DHT22;4631;49.296;10.560;2023-02-28T11:43:10;3.40;99.90
9193;DHT22;4631;49.296;10.560;2023-02-28T11:45:43;3.50;99.90
9193;DHT22;4631;49.296;10.560;2023-02-28T11:48:14;3.60;99.90
9193;DHT22;4631;49.296;10.560;2023-02-28T11:50:48;3.50;99.90
9193;DHT22;4631;49.296;10.560;2023-02-28T11:53:21;3.50;99.90
9193;DHT22;4631;49.296;10.560;2023-02-28T11:55:51;3.40;99.90
9193;DHT22;4631;49.296;10.560;2023-02-28T11:58:23;3.40;99.90
9193;DHT22;4631;49.296;10.560;2023-02-28T12:01:05;3.30;99.90
9193;DHT22;4631;49.296;10.560;2023-02-28T12:03:39;3.20;99.90
9193;DHT22;4631;49.296;10.560;2023-02-28T12:06:12;3.20;99.90
9193;DHT22;4631;49.296;10.560;2023-02-28T12:08:47;3.40;99.90
9193;DHT22;4631;49.296;10.560;2023-02-28T12:11:19;3.60;99.90
9193;DHT22;4631;49.296;10.560;2023-02-28T12:13:52;3.70;99.90
9193;DHT22;4631;49.296;10.560;2023-02-28T12:16:27;3.80;99.90
9193;DHT22;4631;49.296;10.560;2023-02-28T12:19:07;4.00;99.90
9193;DHT22;4631;49.296;10.560;2023-02-28T12:21:43;4.10;99.90
9193;DHT22;4631;49.296;10.560;2023-02-28T12:24:17;4.20;99.90
9193;DHT22;4631;49.296;10.560;2023-02-28T12:26:49;4.20;99.90
9193;DHT22;4631;49.296;10.560;2023-02-28T12:29:19;4.20;99.90
9193;DHT22;4631;49.296;10.560;2023-02-28T12:31:49;4.20;99.90
9193;DHT22;4631;49.296;10.560;2023-02-28T12:34:18;4.30;99.90
9193;DHT22;4631;49.296;10.560;2023-02-28T12:36:45;4.40;99.90
9193;DHT22;4631;49.296;10.560;2023-02-28T12:39:15;4.50;99.90
9193;DHT22;4631;49.296;10.560;2023-02-28T12:41:44;4.50;99.90
9193;DHT22;4631;49.296;10.560;2023-02-28T12:44:14;4.60;99.90
9193;DHT22;4631;49.296;10.560;2023-02-28T12:46:42;4.60;99.90
9193;DHT22;4631;49.296;10.560;2023-02-28T12:49:10;4.70;99.90
9193;DHT22;4631;49.296;10.560;2023-02-28T12:51:39;4.70;99.90
9193;DHT22;4631;49.296;10.560;2023-02-28T12:54:09;4.80;99.90
9193;DHT22;4631;49.296;10.560;2023-02-28T12:56:38;4.90;99.90
9193;DHT22;4631;49.296;10.560;2023-02-28T12:59:10;5.10;99.90
9193;DHT22;4631;49.296;10.560;2023-02-28T13:01:45;5.10;99.90
9193;DHT22;4631;49.296;10.560;2023-02-28T13:07:06;5.20;99.90
9193;DHT22;4631;49.296;10.560;2023-02-28T13:09:37;5.10;99.90
9193;DHT22;4631;49.296;10.560;2023-02-28T13:12:11;5.40;99.90
9193;DHT22;4631;49.296;10.560;2023-02-28T13:14:38;5.50;99.90
9193;DHT22;4631;49.296;10.560;2023-02-28T13:17:11;5.60;99.90
9193;DHT22;4631;49.296;10.560;2023-02-28T13:19:39;5.70;99.90
9193;DHT22;4631;49.296;10.560;2023-02-28T13:22:15;5.40;99.90
9193;DHT22;4631;49.296;10.560;2023-02-28T13:24:44;5.30;99.90
9193;DHT22;4631;49.296;10.560;2023-02-28T13:27:17;5.40;99.90
9193;DHT22;4631;49.296;10.560;2023-02-28T13:29:49;5.30;99.90
9193;DHT22;4631;49.296;10.560;2023-02-28T13:32:32;5.40;99.90
9193;DHT22;4631;49.296;10.560;2023-02-28T13:35:12;5.30;99.90
9193;DHT22;4631;49.296;10.560;2023-02-28T13:37:41;5.50;99.90
9193;DHT22;4631;49.296;10.560;2023-02-28T13:42:54;5.80;99.90
9193;DHT22;4631;49.296;10.560;2023-02-28T13:45:22;5.70;99.90
9193;DHT22;4631;49.296;10.560;2023-02-28T13:47:53;5.80;99.90
9193;DHT22;4631;49.296;10.560;2023-02-28T13:50:24;5.80;99.90
9193;DHT22;4631;49.296;10.560;2023-02-28T13:52:56;5.80;99.90
9193;DHT22;4631;49.296;10.560;2023-02-28T13:55:28;5.80;99.90
9193;DHT22;4631;49.296;10.560;2023-02-28T13:58:14;5.80;99.90
9193;DHT22;4631;49.296;10.560;2023-02-28T14:00:49;5.90;99.90
9193;DHT22;4631;49.296;10.560;2023-02-28T14:03:34;6.10;99.90
9193;DHT22;4631;49.296;10.560;2023-02-28T14:06:15;6.20;99.90
9193;DHT22;4631;49.296;10.560;2023-02-28T14:08:49;6.20;99.90
9193;DHT22;4631;49.296;10.560;2023-02-28T14:11:25;6.20;99.90
9193;DHT22;4631;49.296;10.560;2023-02-28T14:13:52;6.20;99.90
9193;DHT22;4631;49.296;10.560;2023-02-28T14:16:20;6.20;99.90
9193;DHT22;4631;49.296;10.560;2023-02-28T14:18:49;6.00;99.90
9193;DHT22;4631;49.296;10.560;2023-02-28T14:21:20;6.00;99.90
9193;DHT22;4631;49.296;10.560;2023-02-28T14:26:49;6.20;99.90
9193;DHT22;4631;49.296;10.560;2023-02-28T14:29:23;6.20;99.90
9193;DHT22;4631;49.296;10.560;2023-02-28T14:31:54;6.10;99.90
9193;DHT22;4631;49.296;10.560;2023-02-28T14:34:35;6.00;99.90
9193;DHT22;4631;49.296;10.560;2023-02-28T14:37:02;6.20;99.90
9193;DHT22;4631;49.296;10.560;2023-02-28T14:39:29;6.30;99.90
9193;DHT22;4631;49.296;10.560;2023-02-28T14:41:56;6.30;99.90
9193;DHT22;4631;49.296;10.560;2023-02-28T14:44:24;6.30;99.90
9193;DHT22;4631;49.296;10.560;2023-02-28T14:46:52;6.20;99.90
9193;DHT22;4631;49.296;10.560;2023-02-28T14:49:20;6.20;99.90
9193;DHT22;4631;49.296;10.560;2023-02-28T14:51:49;6.00;99.90
9193;DHT22;4631;49.296;10.560;2023-02-28T14:54:16;6.20;99.90
9193;DHT22;4631;49.296;10.560;2023-02-28T14:56:49;6.20;99.90
9193;DHT22;4631;49.296;10.560;2023-02-28T15:02:16;6.00;99.90
9193;DHT22;4631;49.296;10.560;2023-02-28T15:04:43;6.10;99.90
9193;DHT22;4631;49.296;10.560;2023-02-28T15:07:19;6.20;99.90
9193;DHT22;4631;49.296;10.560;2023-02-28T15:10:09;6.10;99.90
9193;DHT22;4631;49.296;10.560;2023-02-28T15:12:36;6.10;99.90
9193;DHT22;4631;49.296;10.560;2023-02-28T15:15:03;6.00;99.90
9193;DHT22;4631;49.296;10.560;2023-02-28T15:17:30;6.00;99.90
9193;DHT22;4631;49.296;10.560;2023-02-28T15:19:57;5.90;99.90
9193;DHT22;4631;49.296;10.560;2023-02-28T15:22:26;6.00;99.90
9193;DHT22;4631;49.296;10.560;2023-02-28T15:24:54;5.90;99.90
9193;DHT22;4631;49.296;10.560;2023-02-28T15:27:22;5.80;99.90
9193;DHT22;4631;49.296;10.560;2023-02-28T15:29:51;5.60;99.90
9193;DHT22;4631;49.296;10.560;2023-02-28T15:32:23;5.50;99.90
9193;DHT22;4631;49.296;10.560;2023-02-28T15:34:50;5.40;99.90
9193;DHT22;4631;49.296;10.560;2023-02-28T15:37:33;5.20;99.90
9193;DHT22;4631;49.296;10.560;2023-02-28T15:40:05;5.10;99.90
9193;DHT22;4631;49.296;10.560;2023-02-28T15:42:34;4.90;99.90
9193;DHT22;4631;49.296;10.560;2023-02-28T15:45:00;4.80;99.90
9193;DHT22;4631;49.296;10.560;2023-02-28T15:47:28;4.70;99.90
9193;DHT22;4631;49.296;10.560;2023-02-28T15:49:56;4.50;99.90
9193;DHT22;4631;49.296;10.560;2023-02-28T15:52:24;4.30;99.90
9193;DHT22;4631;49.296;10.560;2023-02-28T15:54:53;4.20;99.90
9193;DHT22;4631;49.296;10.560;2023-02-28T15:57:21;4.10;99.90
9193;DHT22;4631;49.296;10.560;2023-02-28T15:59:49;4.10;99.90
9193;DHT22;4631;49.296;10.560;2023-02-28T16:02:18;4.00;99.90
9193;DHT22;4631;49.296;10.560;2023-02-28T16:04:56;3.90;99.90
9193;DHT22;4631;49.296;10.560;2023-02-28T16:07:22;3.90;99.90
9193;DHT22;4631;49.296;10.560;2023-02-28T16:09:49;3.80;99.90
9193;DHT22;4631;49.296;10.560;2023-02-28T16:12:18;3.70;99.90
9193;DHT22;4631;49.296;10.560;2023-02-28T16:14:45;3.70;99.90
9193;DHT22;4631;49.296;10.560;2023-02-28T16:17:14;3.70;99.90
9193;DHT22;4631;49.296;10.560;2023-02-28T16:19:43;3.70;99.90
9193;DHT22;4631;49.296;10.560;2023-02-28T16:22:09;3.60;99.90
9193;DHT22;4631;49.296;10.560;2023-02-28T16:24:36;3.60;99.90
9193;DHT22;4631;49.296;10.560;2023-02-28T16:27:03;3.50;99.90